sensor_id;sensor_type;location;lat;lon;timestamp;P1;durP1;ratioP1;P2;durP2;ratioP2
20844;SDS011;10583;49.084;8.646;2022-10-31T00:00:33;8.30;;;8.30;;
20844;SDS011;10583;49.084;8.646;2022-10-31T00:03:00;6.83;;;6.83;;
20844;SDS011;10583;49.084;8.646;2022-10-31T00:05:27;7.63;;;7.63;;
20844;SDS011;10583;49.084;8.646;2022-10-31T00:07:54;6.73;;;6.73;;
20844;SDS011;10583;49.084;8.646;2022-10-31T00:10:21;7.23;;;7.23;;
20844;SDS011;10583;49.084;8.646;2022-10-31T00:12:48;6.00;;;6.00;;
20844;SDS011;10583;49.084;8.646;2022-10-31T00:15:15;5.80;;;5.80;;
20844;SDS011;10583;49.084;8.646;2022-10-31T00:17:43;6.07;;;6.07;;
20844;SDS011;10583;49.084;8.646;2022-10-31T00:20:10;7.10;;;7.10;;
20844;SDS011;10583;49.084;8.646;2022-10-31T00:22:37;5.70;;;5.70;;
20844;SDS011;10583;49.084;8.646;2022-10-31T00:25:04;5.23;;;5.23;;
20844;SDS011;10583;49.084;8.646;2022-10-31T00:27:31;5.10;;;5.10;;
20844;SDS011;10583;49.084;8.646;2022-10-31T00:29:58;4.90;;;4.90;;
20844;SDS011;10583;49.084;8.646;2022-10-31T00:32:25;4.83;;;4.83;;
20844;SDS011;10583;49.084;8.646;2022-10-31T00:34:55;5.00;;;5.00;;
20844;SDS011;10583;49.084;8.646;2022-10-31T00:37:22;4.30;;;4.30;;
20844;SDS011;10583;49.084;8.646;2022-10-31T00:39:49;4.80;;;4.80;;
20844;SDS011;10583;49.084;8.646;2022-10-31T00:42:16;4.97;;;4.97;;
20844;SDS011;10583;49.084;8.646;2022-10-31T00:44:43;4.40;;;4.40;;
20844;SDS011;10583;49.084;8.646;2022-10-31T00:47:09;4.47;;;4.47;;
20844;SDS011;10583;49.084;8.646;2022-10-31T00:49:36;4.33;;;4.33;;
20844;SDS011;10583;49.084;8.646;2022-10-31T00:52:04;4.20;;;4.20;;
20844;SDS011;10583;49.084;8.646;2022-10-31T00:54:31;4.73;;;4.73;;
20844;SDS011;10583;49.084;8.646;2022-10-31T00:56:58;6.10;;;6.10;;
20844;SDS011;10583;49.084;8.646;2022-10-31T00:59:25;7.20;;;7.20;;
20844;SDS011;10583;49.084;8.646;2022-10-31T01:01:52;5.30;;;5.30;;
20844;SDS011;10583;49.084;8.646;2022-10-31T01:04:19;5.00;;;5.00;;
20844;SDS011;10583;49.084;8.646;2022-10-31T01:06:45;4.80;;;4.80;;
20844;SDS011;10583;49.084;8.646;2022-10-31T01:09:13;4.40;;;4.40;;
20844;SDS011;10583;49.084;8.646;2022-10-31T01:11:40;3.97;;;3.97;;
20844;SDS011;10583;49.084;8.646;2022-10-31T01:14:08;4.30;;;4.30;;
20844;SDS011;10583;49.084;8.646;2022-10-31T01:16:34;4.30;;;4.30;;
20844;SDS011;10583;49.084;8.646;2022-10-31T01:19:01;5.13;;;5.13;;
20844;SDS011;10583;49.084;8.646;2022-10-31T01:21:29;4.80;;;4.80;;
20844;SDS011;10583;49.084;8.646;2022-10-31T01:23:56;5.20;;;5.20;;
20844;SDS011;10583;49.084;8.646;2022-10-31T01:26:24;5.50;;;5.50;;
20844;SDS011;10583;49.084;8.646;2022-10-31T01:28:52;5.50;;;5.50;;
20844;SDS011;10583;49.084;8.646;2022-10-31T01:31:21;5.60;;;5.60;;
20844;SDS011;10583;49.084;8.646;2022-10-31T01:33:49;5.10;;;5.10;;
20844;SDS011;10583;49.084;8.646;2022-10-31T01:36:17;4.97;;;4.97;;
20844;SDS011;10583;49.084;8.646;2022-10-31T01:38:45;5.00;;;5.00;;
20844;SDS011;10583;49.084;8.646;2022-10-31T01:41:13;5.23;;;5.23;;
20844;SDS011;10583;49.084;8.646;2022-10-31T01:43:44;5.93;;;5.93;;
20844;SDS011;10583;49.084;8.646;2022-10-31T01:46:13;5.77;;;5.77;;
20844;SDS011;10583;49.084;8.646;2022-10-31T01:48:42;5.63;;;5.63;;
20844;SDS011;10583;49.084;8.646;2022-10-31T01:51:09;6.67;;;6.67;;
20844;SDS011;10583;49.084;8.646;2022-10-31T01:53:40;5.17;;;5.17;;
20844;SDS011;10583;49.084;8.646;2022-10-31T01:56:08;4.63;;;4.63;;
20844;SDS011;10583;49.084;8.646;2022-10-31T01:58:36;4.70;;;4.70;;
20844;SDS011;10583;49.084;8.646;2022-10-31T02:01:04;4.33;;;4.33;;
20844;SDS011;10583;49.084;8.646;2022-10-31T02:03:31;4.43;;;4.43;;
20844;SDS011;10583;49.084;8.646;2022-10-31T02:05:58;4.37;;;4.37;;
20844;SDS011;10583;49.084;8.646;2022-10-31T02:08:26;4.83;;;4.83;;
20844;SDS011;10583;49.084;8.646;2022-10-31T02:10:55;4.70;;;4.70;;
20844;SDS011;10583;49.084;8.646;2022-10-31T02:13:23;4.10;;;4.10;;
20844;SDS011;10583;49.084;8.646;2022-10-31T02:15:52;4.70;;;4.70;;
20844;SDS011;10583;49.084;8.646;2022-10-31T02:18:23;3.93;;;3.93;;
20844;SDS011;10583;49.084;8.646;2022-10-31T02:20:55;3.60;;;3.60;;
20844;SDS011;10583;49.084;8.646;2022-10-31T02:26:39;3.40;;;3.40;;
20844;SDS011;10583;49.084;8.646;2022-10-31T02:32:14;4.37;;;4.37;;
20844;SDS011;10583;49.084;8.646;2022-10-31T02:34:48;4.03;;;4.03;;
20844;SDS011;10583;49.084;8.646;2022-10-31T02:37:19;3.67;;;3.67;;
20844;SDS011;10583;49.084;8.646;2022-10-31T02:39:52;3.70;;;3.70;;
20844;SDS011;10583;49.084;8.646;2022-10-31T02:42:24;4.50;;;4.50;;
20844;SDS011;10583;49.084;8.646;2022-10-31T02:45:00;4.97;;;4.97;;
20844;SDS011;10583;49.084;8.646;2022-10-31T02:47:33;4.23;;;4.23;;
20844;SDS011;10583;49.084;8.646;2022-10-31T02:50:04;3.93;;;3.93;;
20844;SDS011;10583;49.084;8.646;2022-10-31T02:52:35;4.50;;;4.50;;
20844;SDS011;10583;49.084;8.646;2022-10-31T02:55:09;4.20;;;4.20;;
20844;SDS011;10583;49.084;8.646;2022-10-31T02:57:37;4.40;;;4.40;;
20844;SDS011;10583;49.084;8.646;2022-10-31T03:00:08;4.60;;;4.60;;
20844;SDS011;10583;49.084;8.646;2022-10-31T03:02:41;4.53;;;4.53;;
20844;SDS011;10583;49.084;8.646;2022-10-31T03:05:18;4.53;;;4.53;;
20844;SDS011;10583;49.084;8.646;2022-10-31T03:08:00;3.90;;;3.90;;
20844;SDS011;10583;49.084;8.646;2022-10-31T03:10:35;3.80;;;3.80;;
20844;SDS011;10583;49.084;8.646;2022-10-31T03:13:09;4.30;;;4.30;;
20844;SDS011;10583;49.084;8.646;2022-10-31T03:15:42;3.60;;;3.60;;
20844;SDS011;10583;49.084;8.646;2022-10-31T03:20:52;3.40;;;3.40;;
20844;SDS011;10583;49.084;8.646;2022-10-31T03:23:22;4.13;;;4.13;;
20844;SDS011;10583;49.084;8.646;2022-10-31T03:25:51;3.80;;;3.80;;
20844;SDS011;10583;49.084;8.646;2022-10-31T03:28:21;4.07;;;4.07;;
20844;SDS011;10583;49.084;8.646;2022-10-31T03:30:53;3.97;;;3.97;;
20844;SDS011;10583;49.084;8.646;2022-10-31T03:33:23;3.97;;;3.97;;
20844;SDS011;10583;49.084;8.646;2022-10-31T03:35:53;4.47;;;4.47;;
20844;SDS011;10583;49.084;8.646;2022-10-31T03:38:23;4.30;;;4.30;;
20844;SDS011;10583;49.084;8.646;2022-10-31T03:40:50;5.00;;;5.00;;
20844;SDS011;10583;49.084;8.646;2022-10-31T03:43:21;5.00;;;5.00;;
20844;SDS011;10583;49.084;8.646;2022-10-31T03:45:50;4.83;;;4.83;;
20844;SDS011;10583;49.084;8.646;2022-10-31T03:48:18;4.53;;;4.53;;
20844;SDS011;10583;49.084;8.646;2022-10-31T03:50:49;4.23;;;4.23;;
20844;SDS011;10583;49.084;8.646;2022-10-31T03:53:22;4.47;;;4.47;;
20844;SDS011;10583;49.084;8.646;2022-10-31T03:55:55;4.70;;;4.70;;
20844;SDS011;10583;49.084;8.646;2022-10-31T03:58:27;4.60;;;4.60;;
20844;SDS011;10583;49.084;8.646;2022-10-31T04:01:03;4.00;;;4.00;;
20844;SDS011;10583;49.084;8.646;2022-10-31T04:03:35;4.10;;;4.10;;
20844;SDS011;10583;49.084;8.646;2022-10-31T04:06:05;3.37;;;3.37;;
20844;SDS011;10583;49.084;8.646;2022-10-31T04:08:37;3.87;;;3.87;;
20844;SDS011;10583;49.084;8.646;2022-10-31T04:11:07;3.63;;;3.63;;
20844;SDS011;10583;49.084;8.646;2022-10-31T04:13:35;3.30;;;3.30;;
20844;SDS011;10583;49.084;8.646;2022-10-31T04:16:04;3.53;;;3.53;;
20844;SDS011;10583;49.084;8.646;2022-10-31T04:18:32;3.17;;;3.17;;
20844;SDS011;10583;49.084;8.646;2022-10-31T04:21:00;3.07;;;3.07;;
20844;SDS011;10583;49.084;8.646;2022-10-31T04:23:29;3.57;;;3.57;;
20844;SDS011;10583;49.084;8.646;2022-10-31T04:25:56;3.60;;;3.60;;
20844;SDS011;10583;49.084;8.646;2022-10-31T04:28:23;3.53;;;3.53;;
20844;SDS011;10583;49.084;8.646;2022-10-31T04:30:50;3.60;;;3.60;;
20844;SDS011;10583;49.084;8.646;2022-10-31T04:33:17;3.83;;;3.83;;
20844;SDS011;10583;49.084;8.646;2022-10-31T04:35:44;3.77;;;3.77;;
20844;SDS011;10583;49.084;8.646;2022-10-31T04:38:12;3.90;;;3.90;;
20844;SDS011;10583;49.084;8.646;2022-10-31T04:43:23;3.60;;;3.60;;
20844;SDS011;10583;49.084;8.646;2022-10-31T04:45:49;3.47;;;3.47;;
20844;SDS011;10583;49.084;8.646;2022-10-31T04:48:16;3.30;;;3.30;;
20844;SDS011;10583;49.084;8.646;2022-10-31T04:50:43;4.20;;;4.20;;
20844;SDS011;10583;49.084;8.646;2022-10-31T04:53:10;3.60;;;3.60;;
20844;SDS011;10583;49.084;8.646;2022-10-31T04:55:37;3.70;;;3.70;;
20844;SDS011;10583;49.084;8.646;2022-10-31T04:58:05;4.20;;;4.20;;
20844;SDS011;10583;49.084;8.646;2022-10-31T05:00:32;5.33;;;5.33;;
20844;SDS011;10583;49.084;8.646;2022-10-31T05:02:59;4.17;;;4.17;;
20844;SDS011;10583;49.084;8.646;2022-10-31T05:05:27;4.60;;;4.60;;
20844;SDS011;10583;49.084;8.646;2022-10-31T05:07:55;5.23;;;5.23;;
20844;SDS011;10583;49.084;8.646;2022-10-31T05:10:23;4.57;;;4.57;;
20844;SDS011;10583;49.084;8.646;2022-10-31T05:12:51;3.97;;;3.97;;
20844;SDS011;10583;49.084;8.646;2022-10-31T05:15:21;3.90;;;3.90;;
20844;SDS011;10583;49.084;8.646;2022-10-31T05:17:50;4.30;;;4.30;;
20844;SDS011;10583;49.084;8.646;2022-10-31T05:20:18;5.13;;;5.13;;
20844;SDS011;10583;49.084;8.646;2022-10-31T05:22:46;4.27;;;4.27;;
20844;SDS011;10583;49.084;8.646;2022-10-31T05:25:14;4.37;;;4.37;;
20844;SDS011;10583;49.084;8.646;2022-10-31T05:27:42;3.90;;;3.90;;
20844;SDS011;10583;49.084;8.646;2022-10-31T05:30:11;4.30;;;4.30;;
20844;SDS011;10583;49.084;8.646;2022-10-31T05:32:41;5.47;;;5.47;;
20844;SDS011;10583;49.084;8.646;2022-10-31T05:35:11;4.20;;;4.20;;
20844;SDS011;10583;49.084;8.646;2022-10-31T05:37:39;4.13;;;4.13;;
20844;SDS011;10583;49.084;8.646;2022-10-31T05:40:06;4.00;;;4.00;;
20844;SDS011;10583;49.084;8.646;2022-10-31T05:42:35;4.60;;;4.60;;
20844;SDS011;10583;49.084;8.646;2022-10-31T05:45:04;5.03;;;5.03;;
20844;SDS011;10583;49.084;8.646;2022-10-31T05:47:32;4.30;;;4.30;;
20844;SDS011;10583;49.084;8.646;2022-10-31T05:50:01;4.13;;;4.13;;
20844;SDS011;10583;49.084;8.646;2022-10-31T05:52:28;5.20;;;5.20;;
20844;SDS011;10583;49.084;8.646;2022-10-31T05:54:55;5.07;;;5.07;;
20844;SDS011;10583;49.084;8.646;2022-10-31T05:57:22;5.30;;;5.30;;
20844;SDS011;10583;49.084;8.646;2022-10-31T05:59:49;5.67;;;5.67;;
20844;SDS011;10583;49.084;8.646;2022-10-31T06:02:17;5.60;;;5.60;;
20844;SDS011;10583;49.084;8.646;2022-10-31T06:04:44;5.90;;;5.90;;
20844;SDS011;10583;49.084;8.646;2022-10-31T06:07:12;4.93;;;4.93;;
20844;SDS011;10583;49.084;8.646;2022-10-31T06:09:39;5.23;;;5.23;;
20844;SDS011;10583;49.084;8.646;2022-10-31T06:12:06;7.70;;;7.70;;
20844;SDS011;10583;49.084;8.646;2022-10-31T06:14:33;7.40;;;7.40;;
20844;SDS011;10583;49.084;8.646;2022-10-31T06:17:06;6.27;;;6.27;;
20844;SDS011;10583;49.084;8.646;2022-10-31T06:19:33;6.00;;;6.00;;
20844;SDS011;10583;49.084;8.646;2022-10-31T06:22:00;5.03;;;5.03;;
20844;SDS011;10583;49.084;8.646;2022-10-31T06:24:28;4.77;;;4.77;;
20844;SDS011;10583;49.084;8.646;2022-10-31T06:26:55;5.00;;;5.00;;
20844;SDS011;10583;49.084;8.646;2022-10-31T06:29:22;3.97;;;3.97;;
20844;SDS011;10583;49.084;8.646;2022-10-31T06:31:50;4.87;;;4.87;;
20844;SDS011;10583;49.084;8.646;2022-10-31T06:34:17;5.67;;;5.67;;
20844;SDS011;10583;49.084;8.646;2022-10-31T06:36:45;4.83;;;4.83;;
20844;SDS011;10583;49.084;8.646;2022-10-31T06:39:12;4.60;;;4.60;;
20844;SDS011;10583;49.084;8.646;2022-10-31T06:41:40;4.50;;;4.50;;
20844;SDS011;10583;49.084;8.646;2022-10-31T06:44:07;4.50;;;4.50;;
20844;SDS011;10583;49.084;8.646;2022-10-31T06:46:34;4.40;;;4.40;;
20844;SDS011;10583;49.084;8.646;2022-10-31T06:49:01;6.33;;;6.33;;
20844;SDS011;10583;49.084;8.646;2022-10-31T06:51:28;5.50;;;5.50;;
20844;SDS011;10583;49.084;8.646;2022-10-31T06:53:54;5.50;;;5.50;;
20844;SDS011;10583;49.084;8.646;2022-10-31T06:56:21;5.67;;;5.67;;
20844;SDS011;10583;49.084;8.646;2022-10-31T06:58:50;4.87;;;4.87;;
20844;SDS011;10583;49.084;8.646;2022-10-31T07:01:17;4.97;;;4.97;;
20844;SDS011;10583;49.084;8.646;2022-10-31T07:03:44;4.70;;;4.70;;
20844;SDS011;10583;49.084;8.646;2022-10-31T07:06:11;4.80;;;4.80;;
20844;SDS011;10583;49.084;8.646;2022-10-31T07:08:37;4.73;;;4.73;;
20844;SDS011;10583;49.084;8.646;2022-10-31T07:11:04;4.80;;;4.80;;
20844;SDS011;10583;49.084;8.646;2022-10-31T07:13:31;4.90;;;4.90;;
20844;SDS011;10583;49.084;8.646;2022-10-31T07:16:01;4.50;;;4.50;;
20844;SDS011;10583;49.084;8.646;2022-10-31T07:18:29;5.13;;;5.13;;
20844;SDS011;10583;49.084;8.646;2022-10-31T07:20:56;4.47;;;4.47;;
20844;SDS011;10583;49.084;8.646;2022-10-31T07:23:23;4.47;;;4.47;;
20844;SDS011;10583;49.084;8.646;2022-10-31T07:25:54;4.37;;;4.37;;
20844;SDS011;10583;49.084;8.646;2022-10-31T07:28:21;4.27;;;4.27;;
20844;SDS011;10583;49.084;8.646;2022-10-31T07:30:49;4.67;;;4.67;;
20844;SDS011;10583;49.084;8.646;2022-10-31T07:33:17;5.03;;;5.03;;
20844;SDS011;10583;49.084;8.646;2022-10-31T07:35:44;4.83;;;4.83;;
20844;SDS011;10583;49.084;8.646;2022-10-31T07:38:12;5.20;;;5.20;;
20844;SDS011;10583;49.084;8.646;2022-10-31T07:40:40;5.03;;;5.03;;
20844;SDS011;10583;49.084;8.646;2022-10-31T07:43:07;5.20;;;5.20;;
20844;SDS011;10583;49.084;8.646;2022-10-31T07:45:34;4.73;;;4.73;;
20844;SDS011;10583;49.084;8.646;2022-10-31T07:48:01;5.67;;;5.67;;
20844;SDS011;10583;49.084;8.646;2022-10-31T07:50:30;5.60;;;5.60;;
20844;SDS011;10583;49.084;8.646;2022-10-31T07:52:59;5.17;;;5.17;;
20844;SDS011;10583;49.084;8.646;2022-10-31T07:55:26;5.00;;;5.00;;
20844;SDS011;10583;49.084;8.646;2022-10-31T07:57:57;5.17;;;5.17;;
20844;SDS011;10583;49.084;8.646;2022-10-31T08:00:24;4.73;;;4.73;;
20844;SDS011;10583;49.084;8.646;2022-10-31T08:02:58;4.80;;;4.80;;
20844;SDS011;10583;49.084;8.646;2022-10-31T08:05:25;4.33;;;4.33;;
20844;SDS011;10583;49.084;8.646;2022-10-31T08:07:54;4.40;;;4.40;;
20844;SDS011;10583;49.084;8.646;2022-10-31T08:10:21;4.70;;;4.70;;
20844;SDS011;10583;49.084;8.646;2022-10-31T08:12:54;4.80;;;4.80;;
20844;SDS011;10583;49.084;8.646;2022-10-31T08:15:21;4.20;;;4.20;;
20844;SDS011;10583;49.084;8.646;2022-10-31T08:17:48;3.97;;;3.97;;
20844;SDS011;10583;49.084;8.646;2022-10-31T08:20:15;5.03;;;5.03;;
20844;SDS011;10583;49.084;8.646;2022-10-31T08:22:42;4.73;;;4.73;;
20844;SDS011;10583;49.084;8.646;2022-10-31T08:25:10;4.43;;;4.43;;
20844;SDS011;10583;49.084;8.646;2022-10-31T08:27:36;4.87;;;4.87;;
20844;SDS011;10583;49.084;8.646;2022-10-31T08:30:04;4.70;;;4.70;;
20844;SDS011;10583;49.084;8.646;2022-10-31T08:32:31;4.80;;;4.80;;
20844;SDS011;10583;49.084;8.646;2022-10-31T08:34:58;4.80;;;4.80;;
20844;SDS011;10583;49.084;8.646;2022-10-31T08:37:25;5.00;;;5.00;;
20844;SDS011;10583;49.084;8.646;2022-10-31T08:39:51;5.17;;;5.17;;
20844;SDS011;10583;49.084;8.646;2022-10-31T08:42:19;4.73;;;4.73;;
20844;SDS011;10583;49.084;8.646;2022-10-31T08:44:46;4.57;;;4.57;;
20844;SDS011;10583;49.084;8.646;2022-10-31T08:47:13;5.10;;;5.10;;
20844;SDS011;10583;49.084;8.646;2022-10-31T08:49:40;4.10;;;4.10;;
20844;SDS011;10583;49.084;8.646;2022-10-31T08:52:06;4.50;;;4.50;;
20844;SDS011;10583;49.084;8.646;2022-10-31T08:54:33;4.87;;;4.87;;
20844;SDS011;10583;49.084;8.646;2022-10-31T08:57:00;4.40;;;4.40;;
20844;SDS011;10583;49.084;8.646;2022-10-31T08:59:28;4.80;;;4.80;;
20844;SDS011;10583;49.084;8.646;2022-10-31T09:01:55;4.10;;;4.10;;
20844;SDS011;10583;49.084;8.646;2022-10-31T09:04:21;4.57;;;4.57;;
20844;SDS011;10583;49.084;8.646;2022-10-31T09:06:48;4.13;;;4.13;;
20844;SDS011;10583;49.084;8.646;2022-10-31T09:09:15;4.20;;;4.20;;
20844;SDS011;10583;49.084;8.646;2022-10-31T09:11:42;4.17;;;4.17;;
20844;SDS011;10583;49.084;8.646;2022-10-31T09:14:08;4.80;;;4.80;;
20844;SDS011;10583;49.084;8.646;2022-10-31T09:16:36;4.63;;;4.63;;
20844;SDS011;10583;49.084;8.646;2022-10-31T09:19:03;4.67;;;4.67;;
20844;SDS011;10583;49.084;8.646;2022-10-31T09:21:30;4.90;;;4.90;;
20844;SDS011;10583;49.084;8.646;2022-10-31T09:23:56;4.63;;;4.63;;
20844;SDS011;10583;49.084;8.646;2022-10-31T09:26:23;5.00;;;5.00;;
20844;SDS011;10583;49.084;8.646;2022-10-31T09:28:50;4.93;;;4.93;;
20844;SDS011;10583;49.084;8.646;2022-10-31T09:31:17;4.67;;;4.67;;
20844;SDS011;10583;49.084;8.646;2022-10-31T09:33:45;4.20;;;4.20;;
20844;SDS011;10583;49.084;8.646;2022-10-31T09:36:11;4.40;;;4.40;;
20844;SDS011;10583;49.084;8.646;2022-10-31T09:38:38;4.63;;;4.63;;
20844;SDS011;10583;49.084;8.646;2022-10-31T09:41:07;5.13;;;5.13;;
20844;SDS011;10583;49.084;8.646;2022-10-31T09:43:45;5.03;;;5.03;;
20844;SDS011;10583;49.084;8.646;2022-10-31T09:46:23;4.77;;;4.77;;
20844;SDS011;10583;49.084;8.646;2022-10-31T09:49:03;4.90;;;4.90;;
20844;SDS011;10583;49.084;8.646;2022-10-31T09:51:50;4.70;;;4.70;;
20844;SDS011;10583;49.084;8.646;2022-10-31T09:54:26;4.63;;;4.63;;
20844;SDS011;10583;49.084;8.646;2022-10-31T09:56:56;4.50;;;4.50;;
20844;SDS011;10583;49.084;8.646;2022-10-31T09:59:25;4.20;;;4.20;;
20844;SDS011;10583;49.084;8.646;2022-10-31T10:01:56;4.27;;;4.27;;
20844;SDS011;10583;49.084;8.646;2022-10-31T10:04:31;4.70;;;4.70;;
20844;SDS011;10583;49.084;8.646;2022-10-31T10:07:03;4.17;;;4.17;;
20844;SDS011;10583;49.084;8.646;2022-10-31T10:09:37;4.53;;;4.53;;
20844;SDS011;10583;49.084;8.646;2022-10-31T10:12:07;4.27;;;4.27;;
20844;SDS011;10583;49.084;8.646;2022-10-31T10:14:46;4.20;;;4.20;;
20844;SDS011;10583;49.084;8.646;2022-10-31T10:17:25;4.93;;;4.93;;
20844;SDS011;10583;49.084;8.646;2022-10-31T10:20:15;5.07;;;5.07;;
20844;SDS011;10583;49.084;8.646;2022-10-31T10:22:50;4.93;;;4.93;;
20844;SDS011;10583;49.084;8.646;2022-10-31T10:25:24;4.00;;;4.00;;
20844;SDS011;10583;49.084;8.646;2022-10-31T10:28:01;4.47;;;4.47;;
20844;SDS011;10583;49.084;8.646;2022-10-31T10:30:36;3.80;;;3.80;;
20844;SDS011;10583;49.084;8.646;2022-10-31T10:33:08;3.97;;;3.97;;
20844;SDS011;10583;49.084;8.646;2022-10-31T10:35:41;3.97;;;3.97;;
20844;SDS011;10583;49.084;8.646;2022-10-31T10:38:13;3.90;;;3.90;;
20844;SDS011;10583;49.084;8.646;2022-10-31T10:40:43;3.90;;;3.90;;
20844;SDS011;10583;49.084;8.646;2022-10-31T10:43:17;4.10;;;4.10;;
20844;SDS011;10583;49.084;8.646;2022-10-31T10:45:50;3.60;;;3.60;;
20844;SDS011;10583;49.084;8.646;2022-10-31T10:48:41;4.10;;;4.10;;
20844;SDS011;10583;49.084;8.646;2022-10-31T10:51:20;3.97;;;3.97;;
20844;SDS011;10583;49.084;8.646;2022-10-31T10:53:52;3.90;;;3.90;;
20844;SDS011;10583;49.084;8.646;2022-10-31T10:56:37;4.13;;;4.13;;
20844;SDS011;10583;49.084;8.646;2022-10-31T10:59:11;4.37;;;4.37;;
20844;SDS011;10583;49.084;8.646;2022-10-31T11:01:44;4.00;;;4.00;;
20844;SDS011;10583;49.084;8.646;2022-10-31T11:04:15;4.43;;;4.43;;
20844;SDS011;10583;49.084;8.646;2022-10-31T11:07:00;8.07;;;8.07;;
20844;SDS011;10583;49.084;8.646;2022-10-31T11:09:29;8.30;;;8.30;;
20844;SDS011;10583;49.084;8.646;2022-10-31T11:11:56;9.87;;;9.83;;
20844;SDS011;10583;49.084;8.646;2022-10-31T11:14:23;8.30;;;8.30;;
20844;SDS011;10583;49.084;8.646;2022-10-31T11:16:52;9.33;;;9.33;;
20844;SDS011;10583;49.084;8.646;2022-10-31T11:19:22;7.83;;;7.83;;
20844;SDS011;10583;49.084;8.646;2022-10-31T11:21:51;8.50;;;8.50;;
20844;SDS011;10583;49.084;8.646;2022-10-31T11:24:20;9.37;;;9.37;;
20844;SDS011;10583;49.084;8.646;2022-10-31T11:26:50;8.43;;;8.43;;
20844;SDS011;10583;49.084;8.646;2022-10-31T11:29:20;8.30;;;8.30;;
20844;SDS011;10583;49.084;8.646;2022-10-31T11:31:50;6.87;;;6.87;;
20844;SDS011;10583;49.084;8.646;2022-10-31T11:34:23;5.03;;;5.03;;
20844;SDS011;10583;49.084;8.646;2022-10-31T11:36:54;5.80;;;5.80;;
20844;SDS011;10583;49.084;8.646;2022-10-31T11:39:29;5.43;;;5.43;;
20844;SDS011;10583;49.084;8.646;2022-10-31T11:41:59;5.60;;;5.60;;
20844;SDS011;10583;49.084;8.646;2022-10-31T11:44:28;5.33;;;5.33;;
20844;SDS011;10583;49.084;8.646;2022-10-31T11:46:58;6.67;;;6.67;;
20844;SDS011;10583;49.084;8.646;2022-10-31T11:49:28;6.03;;;6.03;;
20844;SDS011;10583;49.084;8.646;2022-10-31T11:51:57;6.07;;;6.07;;
20844;SDS011;10583;49.084;8.646;2022-10-31T11:54:30;5.93;;;5.93;;
20844;SDS011;10583;49.084;8.646;2022-10-31T11:57:02;5.43;;;5.43;;
20844;SDS011;10583;49.084;8.646;2022-10-31T11:59:30;5.80;;;5.80;;
20844;SDS011;10583;49.084;8.646;2022-10-31T12:01:57;5.63;;;5.63;;
20844;SDS011;10583;49.084;8.646;2022-10-31T12:04:29;5.47;;;5.47;;
20844;SDS011;10583;49.084;8.646;2022-10-31T12:07:02;6.20;;;6.20;;
20844;SDS011;10583;49.084;8.646;2022-10-31T12:09:32;6.07;;;6.07;;
20844;SDS011;10583;49.084;8.646;2022-10-31T12:12:08;6.60;;;6.60;;
20844;SDS011;10583;49.084;8.646;2022-10-31T12:14:48;6.50;;;6.50;;
20844;SDS011;10583;49.084;8.646;2022-10-31T12:17:26;6.57;;;6.57;;
20844;SDS011;10583;49.084;8.646;2022-10-31T12:20:02;6.70;;;6.70;;
20844;SDS011;10583;49.084;8.646;2022-10-31T12:22:41;6.20;;;6.20;;
20844;SDS011;10583;49.084;8.646;2022-10-31T12:25:16;6.67;;;6.67;;
20844;SDS011;10583;49.084;8.646;2022-10-31T12:27:56;7.03;;;7.03;;
20844;SDS011;10583;49.084;8.646;2022-10-31T12:30:31;6.87;;;6.87;;
20844;SDS011;10583;49.084;8.646;2022-10-31T12:36:09;5.90;;;5.90;;
20844;SDS011;10583;49.084;8.646;2022-10-31T12:38:50;5.80;;;5.80;;
20844;SDS011;10583;49.084;8.646;2022-10-31T12:41:32;6.53;;;6.53;;
20844;SDS011;10583;49.084;8.646;2022-10-31T12:44:12;6.20;;;6.20;;
20844;SDS011;10583;49.084;8.646;2022-10-31T12:46:55;6.83;;;6.83;;
20844;SDS011;10583;49.084;8.646;2022-10-31T12:49:36;6.70;;;6.70;;
20844;SDS011;10583;49.084;8.646;2022-10-31T12:52:15;6.80;;;6.80;;
20844;SDS011;10583;49.084;8.646;2022-10-31T12:54:55;7.30;;;7.30;;
20844;SDS011;10583;49.084;8.646;2022-10-31T12:57:35;6.90;;;6.90;;
20844;SDS011;10583;49.084;8.646;2022-10-31T13:00:10;7.27;;;7.27;;
20844;SDS011;10583;49.084;8.646;2022-10-31T13:02:41;6.50;;;6.50;;
20844;SDS011;10583;49.084;8.646;2022-10-31T13:05:13;6.87;;;6.87;;
20844;SDS011;10583;49.084;8.646;2022-10-31T13:07:55;6.57;;;6.57;;
20844;SDS011;10583;49.084;8.646;2022-10-31T13:10:25;6.90;;;6.90;;
20844;SDS011;10583;49.084;8.646;2022-10-31T13:13:00;7.10;;;7.10;;
20844;SDS011;10583;49.084;8.646;2022-10-31T13:15:32;7.53;;;7.53;;
20844;SDS011;10583;49.084;8.646;2022-10-31T13:18:21;7.33;;;7.33;;
20844;SDS011;10583;49.084;8.646;2022-10-31T13:20:53;6.60;;;6.60;;
20844;SDS011;10583;49.084;8.646;2022-10-31T13:23:21;7.03;;;7.03;;
20844;SDS011;10583;49.084;8.646;2022-10-31T13:25:54;7.50;;;7.50;;
20844;SDS011;10583;49.084;8.646;2022-10-31T13:28:26;7.00;;;7.00;;
20844;SDS011;10583;49.084;8.646;2022-10-31T13:30:57;7.43;;;7.43;;
20844;SDS011;10583;49.084;8.646;2022-10-31T13:33:24;6.83;;;6.83;;
20844;SDS011;10583;49.084;8.646;2022-10-31T13:35:55;6.83;;;6.83;;
20844;SDS011;10583;49.084;8.646;2022-10-31T13:38:33;7.23;;;7.23;;
20844;SDS011;10583;49.084;8.646;2022-10-31T13:41:04;7.90;;;7.90;;
20844;SDS011;10583;49.084;8.646;2022-10-31T13:43:47;7.40;;;7.40;;
20844;SDS011;10583;49.084;8.646;2022-10-31T13:46:25;7.53;;;7.53;;
20844;SDS011;10583;49.084;8.646;2022-10-31T13:49:00;8.10;;;8.07;;
20844;SDS011;10583;49.084;8.646;2022-10-31T13:51:29;7.13;;;7.13;;
20844;SDS011;10583;49.084;8.646;2022-10-31T13:53:58;6.73;;;6.73;;
20844;SDS011;10583;49.084;8.646;2022-10-31T13:56:26;7.47;;;7.47;;
20844;SDS011;10583;49.084;8.646;2022-10-31T13:58:58;6.77;;;6.77;;
20844;SDS011;10583;49.084;8.646;2022-10-31T14:01:31;7.20;;;7.20;;
20844;SDS011;10583;49.084;8.646;2022-10-31T14:04:00;7.17;;;7.17;;
20844;SDS011;10583;49.084;8.646;2022-10-31T14:06:50;6.90;;;6.90;;
20844;SDS011;10583;49.084;8.646;2022-10-31T14:09:23;7.10;;;7.10;;
20844;SDS011;10583;49.084;8.646;2022-10-31T14:11:53;7.10;;;7.10;;
20844;SDS011;10583;49.084;8.646;2022-10-31T14:14:23;7.10;;;7.10;;
20844;SDS011;10583;49.084;8.646;2022-10-31T14:16:56;7.33;;;7.33;;
20844;SDS011;10583;49.084;8.646;2022-10-31T14:19:24;7.27;;;7.27;;
20844;SDS011;10583;49.084;8.646;2022-10-31T14:21:51;7.47;;;7.47;;
20844;SDS011;10583;49.084;8.646;2022-10-31T14:24:32;6.90;;;6.90;;
20844;SDS011;10583;49.084;8.646;2022-10-31T14:27:01;7.37;;;7.37;;
20844;SDS011;10583;49.084;8.646;2022-10-31T14:29:31;7.47;;;7.47;;
20844;SDS011;10583;49.084;8.646;2022-10-31T14:32:01;7.33;;;7.33;;
20844;SDS011;10583;49.084;8.646;2022-10-31T14:34:36;8.50;;;8.50;;
20844;SDS011;10583;49.084;8.646;2022-10-31T14:37:14;8.13;;;8.03;;
20844;SDS011;10583;49.084;8.646;2022-10-31T14:39:54;9.87;;;9.87;;
20844;SDS011;10583;49.084;8.646;2022-10-31T14:42:32;9.87;;;9.80;;
20844;SDS011;10583;49.084;8.646;2022-10-31T14:48:03;15.97;;;15.77;;
20844;SDS011;10583;49.084;8.646;2022-10-31T14:50:41;9.83;;;9.83;;
20844;SDS011;10583;49.084;8.646;2022-10-31T14:53:14;8.90;;;8.90;;
20844;SDS011;10583;49.084;8.646;2022-10-31T14:55:46;8.30;;;8.30;;
20844;SDS011;10583;49.084;8.646;2022-10-31T14:58:16;7.70;;;7.70;;
20844;SDS011;10583;49.084;8.646;2022-10-31T15:00:50;8.50;;;8.50;;
20844;SDS011;10583;49.084;8.646;2022-10-31T15:03:22;8.40;;;8.40;;
20844;SDS011;10583;49.084;8.646;2022-10-31T15:05:55;9.13;;;9.13;;
20844;SDS011;10583;49.084;8.646;2022-10-31T15:08:29;10.43;;;10.33;;
20844;SDS011;10583;49.084;8.646;2022-10-31T15:11:02;8.73;;;8.73;;
20844;SDS011;10583;49.084;8.646;2022-10-31T15:13:29;8.87;;;8.87;;
20844;SDS011;10583;49.084;8.646;2022-10-31T15:15:57;8.10;;;8.10;;
20844;SDS011;10583;49.084;8.646;2022-10-31T15:18:25;7.63;;;7.63;;
20844;SDS011;10583;49.084;8.646;2022-10-31T15:20:54;7.13;;;7.13;;
20844;SDS011;10583;49.084;8.646;2022-10-31T15:23:23;8.57;;;8.57;;